Time;durP1;ratioP1;P1;durP2;ratioP2;P2;SDS_P1;SDS_P2;PMS_P1;PMS_P2;Temp;Humidity;BMP_temperature;BMP_pressure;BME280_temperature;BME280_humidity;BME280_pressure;Samples;Min_cycle;Max_cycle;Signal;HPM_P1;HPM_P2
2022/10/14 00:01:00;;;;;;;6.07;4.10;;;14.00;68.90;;;;;;5037511;28;20501;-81
2022/10/14 00:03:27;;;;;;;5.53;3.70;;;14.00;68.90;;;;;;5020884;28;20084;-80
2022/10/14 00:05:53;;;;;;;5.20;4.00;;;14.00;69.00;;;;;;5021379;28;20033;-82
2022/10/14 00:08:19;;;;;;;6.13;3.75;;;14.00;69.10;;;;;;5021234;28;20040;-82
2022/10/14 00:10:44;;;;;;;5.80;3.83;;;14.00;69.10;;;;;;5022098;28;20040;-82
2022/10/14 00:13:10;;;;;;;6.72;3.63;;;14.00;69.10;;;;;;5005838;28;20072;-83
2022/10/14 00:15:38;;;;;;;7.15;4.20;;;14.00;69.00;;;;;;5020931;28;20161;-81
2022/10/14 00:18:05;;;;;;;4.78;4.00;;;14.00;69.00;;;;;;5036577;28;20065;-82
2022/10/14 00:20:32;;;;;;;4.28;3.60;;;14.00;68.90;;;;;;5020790;28;20040;-81
2022/10/14 00:22:57;;;;;;;5.28;4.07;;;14.00;68.90;;;;;;5020073;28;20638;-80
2022/10/14 00:25:25;;;;;;;8.23;4.13;;;14.00;68.80;;;;;;5019560;28;20044;-82
2022/10/14 00:27:51;;;;;;;5.15;4.35;;;14.00;68.80;;;;;;5007360;28;20560;-82
2022/10/14 00:30:17;;;;;;;5.85;4.22;;;14.00;68.70;;;;;;5007405;28;20827;-80
2022/10/14 00:32:43;;;;;;;5.57;4.30;;;14.00;68.80;;;;;;5020499;28;20033;-80
2022/10/14 00:35:09;;;;;;;8.23;4.32;;;14.00;68.70;;;;;;5022833;28;20045;-81
2022/10/14 00:37:35;;;;;;;5.32;4.30;;;14.00;68.70;;;;;;5019237;28;20037;-82
2022/10/14 00:40:01;;;;;;;6.93;4.70;;;14.00;68.70;;;;;;5017959;28;20033;-79
2022/10/14 00:42:32;;;;;;;6.35;4.50;;;14.00;68.60;;;;;;5019538;28;20543;-82
2022/10/14 00:45:01;;;;;;;5.80;4.38;;;14.00;68.50;;;;;;5018787;28;20665;-78
2022/10/14 00:47:29;;;;;;;7.57;4.45;;;14.00;68.60;;;;;;5018498;28;20041;-80
2022/10/14 00:49:58;;;;;;;6.13;4.30;;;14.00;68.60;;;;;;5018775;28;20029;-81
2022/10/14 00:52:24;;;;;;;5.85;4.57;;;14.00;68.60;;;;;;5019792;28;20037;-83
2022/10/14 00:55:16;;;;;;;5.40;4.35;;;14.00;68.70;;;;;;5021041;28;20044;-83
2022/10/14 00:57:43;;;;;;;7.13;4.47;;;14.00;69.30;;;;;;4975734;28;20078;-82
2022/10/14 01:00:12;;;;;;;5.40;4.57;;;14.00;68.50;;;;;;4986556;28;20160;-82
2022/10/14 01:02:38;;;;;;;6.97;4.68;;;14.00;68.40;;;;;;5020093;28;20513;-80
2022/10/14 01:05:07;;;;;;;5.88;4.60;;;14.00;68.40;;;;;;5019275;28;20115;-83
2022/10/14 01:07:54;;;;;;;7.22;4.57;;;14.00;69.10;;;;;;5020558;28;20524;-81
2022/10/14 01:10:42;;;;;;;6.28;4.32;;;14.00;68.50;;;;;;5018883;28;20026;-82
2022/10/14 01:13:30;;;;;;;5.53;4.22;;;14.00;68.40;;;;;;5020040;28;20053;-82
2022/10/14 01:16:16;;;;;;;6.43;4.85;;;14.00;68.50;;;;;;5019799;28;20045;-84
2022/10/14 01:18:53;;;;;;;6.07;4.90;;;14.00;68.40;;;;;;5015953;28;20412;-85
2022/10/14 01:21:53;;;;;;;6.22;4.57;;;14.00;68.30;;;;;;5035897;28;20044;-85
2022/10/14 01:24:43;;;;;;;6.05;4.75;;;14.00;68.40;;;;;;5011069;28;20038;-81
2022/10/14 01:27:24;;;;;;;8.40;4.85;;;14.00;68.30;;;;;;5018717;28;20038;-82
2022/10/14 01:30:10;;;;;;;6.40;4.88;;;14.00;68.40;;;;;;5021112;28;20821;-84
2022/10/14 01:32:47;;;;;;;6.60;5.07;;;14.00;68.40;;;;;;5019947;28;20038;-83
2022/10/14 01:35:48;;;;;;;9.80;5.10;;;14.00;69.00;;;;;;5023411;28;20590;-81
2022/10/14 01:38:46;;;;;;;6.28;5.30;;;14.00;68.40;;;;;;5003631;28;20064;-81
2022/10/14 01:41:28;;;;;;;6.05;5.00;;;14.00;68.40;;;;;;5020802;28;20061;-82
2022/10/14 01:43:59;;;;;;;9.13;5.07;;;13.90;68.30;;;;;;5018765;28;20128;-83
2022/10/14 01:46:26;;;;;;;7.95;5.03;;;14.00;68.40;;;;;;5022263;28;20033;-81
2022/10/14 01:49:01;;;;;;;10.32;5.13;;;14.00;68.50;;;;;;5018675;28;20041;-84
2022/10/14 01:51:57;;;;;;;6.18;5.00;;;14.00;68.50;;;;;;5019153;28;20136;-83
2022/10/14 01:54:30;;;;;;;8.43;5.40;;;14.00;68.50;;;;;;5016816;28;20042;-83
2022/10/14 01:57:01;;;;;;;7.13;5.30;;;13.90;68.30;;;;;;5019788;28;20044;-81
2022/10/14 01:59:29;;;;;;;5.35;4.85;;;13.90;68.30;;;;;;5019021;28;20040;-78
2022/10/14 02:01:55;;;;;;;6.75;5.32;;;14.00;68.40;;;;;;5035170;28;20068;-82
2022/10/14 02:04:22;;;;;;;7.82;5.45;;;14.00;68.50;;;;;;5002630;28;20079;-80
2022/10/14 02:07:11;;;;;;;6.82;4.88;;;13.90;68.40;;;;;;5003530;28;20046;-82
2022/10/14 02:09:55;;;;;;;8.35;5.38;;;13.90;68.40;;;;;;5019078;28;20530;-82
2022/10/14 02:12:35;;;;;;;7.05;5.10;;;13.90;68.40;;;;;;5001420;28;20042;-81
2022/10/14 02:15:39;;;;;;;6.13;5.00;;;13.90;68.40;;;;;;5022340;28;20060;-80
2022/10/14 02:18:25;;;;;;;5.80;4.93;;;13.90;68.40;;;;;;5018510;28;20038;-81
2022/10/14 02:20:58;;;;;;;;;;;13.90;68.30;;;;;;4996667;28;20133;-81
2022/10/14 02:24:06;;;;;;;7.22;5.18;;;13.90;68.40;;;;;;5019281;28;19924;-80
2022/10/14 02:26:33;;;;;;;8.63;5.20;;;13.90;68.30;;;;;;5019814;28;20038;-81
2022/10/14 02:29:01;;;;;;;5.53;4.93;;;13.80;68.20;;;;;;5000116;28;20111;-79
2022/10/14 02:31:27;;;;;;;8.05;5.25;;;13.80;68.20;;;;;;5019417;28;20064;-79
2022/10/14 02:33:57;;;;;;;7.97;5.57;;;13.80;68.90;;;;;;5029279;28;20523;-79
2022/10/14 02:36:26;;;;;;;8.48;5.40;;;13.80;68.30;;;;;;5005480;28;20079;-79
2022/10/14 02:38:54;;;;;;;6.03;5.30;;;13.80;68.30;;;;;;5038714;28;20030;-80
2022/10/14 02:41:23;;;;;;;7.68;5.30;;;13.80;68.30;;;;;;5022332;28;20036;-79
2022/10/14 02:43:49;;;;;;;7.88;5.95;;;13.80;68.30;;;;;;5022538;28;20037;-81
2022/10/14 02:46:20;;;;;;;9.05;5.55;;;13.80;68.30;;;;;;5007036;28;20041;-82
2022/10/14 02:48:46;;;;;;;6.90;5.13;;;13.80;68.30;;;;;;5038778;28;20049;-82
2022/10/14 02:51:12;;;;;;;7.38;5.00;;;13.80;68.30;;;;;;5006439;28;20500;-83
2022/10/14 02:53:38;;;;;;;10.00;5.63;;;13.80;68.30;;;;;;5007556;28;20042;-80
2022/10/14 02:56:05;;;;;;;6.85;5.03;;;13.80;68.30;;;;;;5021319;28;20033;-84
2022/10/14 02:58:33;;;;;;;5.28;4.70;;;13.80;68.30;;;;;;5038729;28;20133;-85
2022/10/14 03:00:59;;;;;;;6.15;4.80;;;13.80;68.30;;;;;;5015545;28;20057;-80
2022/10/14 03:03:25;;;;;;;6.75;5.10;;;13.80;68.30;;;;;;5006000;28;20460;-83
2022/10/14 03:05:51;;;;;;;9.18;5.50;;;13.80;68.30;;;;;;5007621;28;20061;-81
2022/10/14 03:08:16;;;;;;;6.35;4.97;;;13.70;68.20;;;;;;5022238;28;20084;-83
2022/10/14 03:10:47;;;;;;;7.25;5.00;;;13.80;68.20;;;;;;5022318;28;20040;-82
2022/10/14 03:13:14;;;;;;;7.28;5.38;;;13.80;68.10;;;;;;5038665;28;20037;-84
2022/10/14 03:15:48;;;;;;;7.30;5.38;;;13.80;68.10;;;;;;5021243;28;20042;-83
2022/10/14 03:18:14;;;;;;;7.03;5.28;;;13.70;68.00;;;;;;4987633;28;20029;-82
2022/10/14 03:20:44;;;;;;;9.38;5.78;;;13.70;68.00;;;;;;5021157;28;20029;-83
2022/10/14 03:23:13;;;;;;;12.70;5.57;;;13.70;68.00;;;;;;5021891;28;20088;-83
2022/10/14 03:25:42;;;;;;;6.82;5.55;;;13.70;68.00;;;;;;5008278;28;20039;-83
2022/10/14 03:28:15;;;;;;;6.35;5.50;;;13.70;68.60;;;;;;5019567;28;20398;-83
2022/10/14 03:30:50;;;;;;;10.48;5.43;;;13.70;68.00;;;;;;4991495;28;20398;-82
2022/10/14 03:33:30;;;;;;;8.77;5.30;;;13.70;68.10;;;;;;5021330;28;20608;-80
2022/10/14 03:36:15;;;;;;;8.68;5.38;;;13.70;68.10;;;;;;5039355;28;20144;-82
2022/10/14 03:38:48;;;;;;;8.35;5.43;;;13.70;68.00;;;;;;5023525;28;20136;-83
2022/10/14 03:41:27;;;;;;;7.35;4.93;;;13.70;68.00;;;;;;5025061;28;20458;-83
2022/10/14 03:43:53;;;;;;;7.55;5.45;;;13.70;68.00;;;;;;4992157;28;20038;-84
2022/10/14 03:46:20;;;;;;;7.22;5.60;;;13.70;68.00;;;;;;5008321;28;20116;-83
2022/10/14 03:48:49;;;;;;;5.72;4.68;;;13.70;68.10;;;;;;5029945;28;20037;-84
2022/10/14 03:51:16;;;;;;;8.02;4.75;;;13.70;68.00;;;;;;5023868;28;20033;-84
2022/10/14 03:53:45;;;;;;;6.32;4.90;;;13.70;67.90;;;;;;5021728;28;20030;-81
2022/10/14 03:56:14;;;;;;;7.88;5.15;;;13.60;67.90;;;;;;5019338;28;20140;-79
2022/10/14 03:58:40;;;;;;;7.00;5.50;;;13.70;68.10;;;;;;5019956;28;20037;-85
2022/10/14 04:01:11;;;;;;;7.25;5.05;;;13.70;68.20;;;;;;5019941;28;20038;-83
2022/10/14 04:03:57;;;;;;;9.40;5.22;;;13.70;68.40;;;;;;5022446;28;20488;-80
2022/10/14 04:06:24;;;;;;;7.50;5.97;;;13.70;68.50;;;;;;5020980;28;20044;-82
2022/10/14 04:08:55;;;;;;;5.90;4.68;;;13.70;68.60;;;;;;5018587;28;20061;-81
2022/10/14 04:11:28;;;;;;;5.95;4.97;;;13.70;68.60;;;;;;5021385;28;20041;-81
2022/10/14 04:14:00;;;;;;;6.15;4.80;;;13.70;68.60;;;;;;5019143;28;20037;-84
2022/10/14 04:16:29;;;;;;;6.60;4.93;;;13.70;68.50;;;;;;5019113;28;20033;-85
2022/10/14 04:18:59;;;;;;;7.20;5.07;;;13.70;68.60;;;;;;5022707;28;20033;-76
2022/10/14 04:21:25;;;;;;;7.68;4.82;;;13.70;68.60;;;;;;5035452;28;20036;-78
2022/10/14 04:23:52;;;;;;;8.25;5.13;;;13.70;68.50;;;;;;5022157;28;20044;-79
2022/10/14 04:26:28;;;;;;;8.82;4.63;;;13.70;68.50;;;;;;5022989;28;20030;-79
2022/10/14 04:28:54;;;;;;;7.32;5.03;;;13.70;68.50;;;;;;5007188;28;20040;-78
2022/10/14 04:31:32;;;;;;;6.80;5.18;;;13.70;68.40;;;;;;5006357;28;20044;-77
2022/10/14 04:34:01;;;;;;;6.25;4.88;;;13.70;68.50;;;;;;5023974;28;20029;-78
2022/10/14 04:36:33;;;;;;;8.90;5.20;;;13.60;68.40;;;;;;5019336;28;20033;-81
2022/10/14 04:39:01;;;;;;;7.78;5.10;;;13.70;68.40;;;;;;5006087;28;20030;-86
2022/10/14 04:41:27;;;;;;;7.65;5.43;;;13.70;68.40;;;;;;5025806;28;20033;-82
2022/10/14 04:43:56;;;;;;;7.25;5.30;;;13.60;68.20;;;;;;5002686;28;20040;-81
2022/10/14 04:46:30;;;;;;;10.00;5.67;;;13.70;68.10;;;;;;5023992;28;20040;-81
2022/10/14 04:48:57;;;;;;;10.18;4.80;;;13.70;68.10;;;;;;5020030;28;20061;-80
2022/10/14 04:51:26;;;;;;;12.93;6.00;;;13.70;68.10;;;;;;5019176;28;20543;-77
2022/10/14 04:54:12;;;;;;;;;;;13.70;68.30;;;;;;5014725;28;20048;-81
2022/10/14 04:56:56;;;;;;;9.77;5.97;;;13.70;68.80;;;;;;5008802;28;19917;-84
2022/10/14 04:59:22;;;;;;;9.63;5.10;;;13.70;69.30;;;;;;5008455;28;20033;-84
2022/10/14 05:02:06;;;;;;;10.70;5.43;;;13.80;69.70;;;;;;5024170;28;20034;-80
2022/10/14 05:04:44;;;;;;;9.27;5.18;;;13.80;69.80;;;;;;5024499;28;20518;-80
2022/10/14 05:07:11;;;;;;;9.80;5.78;;;13.80;69.90;;;;;;5005822;28;20057;-80
2022/10/14 05:09:37;;;;;;;9.40;5.88;;;13.90;70.10;;;;;;5024517;28;20087;-79
2022/10/14 05:12:07;;;;;;;9.35;5.72;;;14.00;70.10;;;;;;5023972;28;20065;-80
2022/10/14 05:14:41;;;;;;;8.43;5.35;;;14.00;70.20;;;;;;5023132;28;20095;-80
2022/10/14 05:17:21;;;;;;;10.45;5.68;;;14.10;70.30;;;;;;5039278;28;20115;-79
2022/10/14 05:19:47;;;;;;;10.13;5.90;;;14.30;70.00;;;;;;5021846;28;20029;-79
2022/10/14 05:22:14;;;;;;;10.98;5.63;;;14.50;69.30;;;;;;5023850;28;20076;-80
2022/10/14 05:24:43;;;;;;;11.90;5.85;;;14.70;68.70;;;;;;5039712;28;20068;-79
2022/10/14 05:27:10;;;;;;;7.47;5.63;;;14.90;68.20;;;;;;5022711;28;20072;-80
2022/10/14 05:29:36;;;;;;;7.55;5.38;;;15.00;68.10;;;;;;5021652;28;20056;-79
2022/10/14 05:32:02;;;;;;;6.75;5.28;;;15.20;67.80;;;;;;5024012;28;20034;-80
2022/10/14 05:34:39;;;;;;;6.03;4.72;;;15.40;67.70;;;;;;5023416;28;20920;-78
2022/10/14 05:37:08;;;;;;;7.05;4.80;;;15.60;67.30;;;;;;5016710;28;20104;-81
2022/10/14 05:39:43;;;;;;;;;;;15.70;66.90;;;;;;5021562;28;20064;-79
2022/10/14 05:42:12;;;;;;;7.25;4.72;;;15.90;66.60;;;;;;5033766;28;19921;-79
2022/10/14 05:44:40;;;;;;;7.38;4.20;;;16.10;66.40;;;;;;5023991;28;20034;-80
2022/10/14 05:47:06;;;;;;;5.22;3.90;;;16.30;66.60;;;;;;5021997;28;20048;-79
2022/10/14 05:49:33;;;;;;;6.40;4.53;;;16.40;66.30;;;;;;5023122;28;20052;-79
2022/10/14 05:52:02;;;;;;;6.35;3.85;;;16.60;66.50;;;;;;5024556;28;20045;-78
2022/10/14 05:54:30;;;;;;;5.20;3.72;;;16.70;66.50;;;;;;5016491;28;20038;-80
2022/10/14 05:56:57;;;;;;;5.72;3.70;;;16.80;66.40;;;;;;5007640;28;20030;-79
2022/10/14 05:59:24;;;;;;;4.97;3.72;;;17.00;66.40;;;;;;5022336;28;20049;-79
2022/10/14 06:01:51;;;;;;;4.55;3.35;;;17.10;66.20;;;;;;5020483;28;20034;-79
2022/10/14 06:04:19;;;;;;;5.28;3.47;;;17.30;66.00;;;;;;5024829;28;20044;-79
2022/10/14 06:06:45;;;;;;;5.35;3.58;;;17.40;65.90;;;;;;5028428;28;20049;-80
2022/10/14 06:09:13;;;;;;;6.75;3.90;;;17.60;65.30;;;;;;5007604;28;20042;-80
2022/10/14 06:11:39;;;;;;;4.60;3.85;;;17.70;65.40;;;;;;5026839;28;20038;-78
2022/10/14 06:14:06;;;;;;;6.25;4.30;;;17.80;65.10;;;;;;5027124;28;20049;-80
2022/10/14 06:16:32;;;;;;;8.40;5.30;;;18.00;65.20;;;;;;5026837;28;20026;-80
2022/10/14 06:19:04;;;;;;;8.55;6.10;;;18.10;65.00;;;;;;5027118;28;20045;-84
2022/10/14 06:21:29;;;;;;;7.85;5.70;;;18.30;64.70;;;;;;5027313;28;20167;-87
2022/10/14 06:23:55;;;;;;;9.85;5.63;;;18.40;64.70;;;;;;5020489;28;20060;-88
2022/10/14 06:26:21;;;;;;;7.18;5.18;;;18.50;64.30;;;;;;4998554;28;20040;-86
2022/10/14 06:28:47;;;;;;;6.55;4.68;;;18.60;64.00;;;;;;5028859;28;20044;-87
2022/10/14 06:31:13;;;;;;;7.13;4.20;;;18.70;63.80;;;;;;5020089;28;20083;-87
2022/10/14 06:33:39;;;;;;;7.78;3.75;;;18.80;63.50;;;;;;5027872;28;20743;-85
2022/10/14 06:36:05;;;;;;;6.00;3.58;;;18.90;63.30;;;;;;5007390;28;20033;-87
2022/10/14 06:38:32;;;;;;;5.75;3.75;;;19.00;63.30;;;;;;5025331;28;20129;-86
2022/10/14 06:40:58;;;;;;;4.95;3.60;;;19.10;63.20;;;;;;5011268;28;20104;-88
2022/10/14 06:43:24;;;;;;;5.70;3.28;;;19.20;63.00;;;;;;5022563;28;20080;-85
2022/10/14 06:45:51;;;;;;;5.45;3.00;;;19.30;62.60;;;;;;5028136;28;20520;-87
2022/10/14 06:48:17;;;;;;;4.60;3.35;;;19.40;62.50;;;;;;5025754;28;20038;-87
2022/10/14 06:50:43;;;;;;;3.35;2.40;;;19.50;62.20;;;;;;4993855;28;20037;-86
2022/10/14 06:53:09;;;;;;;3.78;2.88;;;19.60;62.00;;;;;;5027809;28;20065;-85
2022/10/14 06:55:35;;;;;;;4.97;3.05;;;19.70;61.80;;;;;;5011473;28;20114;-87
2022/10/14 06:58:01;;;;;;;3.75;2.60;;;19.70;61.50;;;;;;5026792;28;20056;-85
2022/10/14 07:00:27;;;;;;;4.22;3.00;;;19.80;61.40;;;;;;4993166;28;20037;-85
2022/10/14 07:02:53;;;;;;;4.68;2.60;;;19.90;61.20;;;;;;5002506;28;20037;-86
2022/10/14 07:05:19;;;;;;;4.78;3.17;;;19.90;61.20;;;;;;5026188;28;20034;-85
2022/10/14 07:07:45;;;;;;;4.10;3.05;;;19.90;61.10;;;;;;5023980;28;20046;-86
2022/10/14 07:10:11;;;;;;;5.80;3.10;;;20.00;61.00;;;;;;5046259;28;20037;-86
2022/10/14 07:12:37;;;;;;;5.20;2.97;;;19.90;60.70;;;;;;5042737;28;20037;-85
2022/10/14 07:15:03;;;;;;;5.53;3.00;;;20.00;60.60;;;;;;5024205;28;20054;-86
2022/10/14 07:17:29;;;;;;;4.93;3.17;;;20.00;60.50;;;;;;5023540;28;20025;-87
2022/10/14 07:19:56;;;;;;;6.10;2.80;;;20.00;59.80;;;;;;5008935;28;20033;-84
2022/10/14 07:22:22;;;;;;;5.15;3.00;;;20.00;59.40;;;;;;5006180;28;20060;-88
2022/10/14 07:24:48;;;;;;;4.63;2.95;;;19.90;57.70;;;;;;5031136;28;20068;-84
2022/10/14 07:27:17;;;;;;;5.65;3.20;;;19.90;56.10;;;;;;5025443;28;20041;-87
2022/10/14 07:29:45;;;;;;;4.18;3.08;;;19.90;57.60;;;;;;5026318;28;20224;-84
2022/10/14 07:32:11;;;;;;;5.07;3.10;;;19.90;57.40;;;;;;5009926;28;20171;-83
2022/10/14 07:34:37;;;;;;;3.45;2.45;;;20.00;57.10;;;;;;5026091;28;20029;-84
2022/10/14 07:37:03;;;;;;;5.10;2.83;;;20.00;57.90;;;;;;4993822;28;20034;-86
2022/10/14 07:39:29;;;;;;;3.78;2.58;;;20.10;58.40;;;;;;5023291;28;20029;-90
2022/10/14 07:41:55;;;;;;;3.83;2.85;;;20.10;57.30;;;;;;5009137;28;20057;-84
2022/10/14 07:44:21;;;;;;;3.67;3.13;;;20.20;57.30;;;;;;5023526;28;20037;-84
2022/10/14 07:46:47;;;;;;;3.80;2.90;;;20.10;57.30;;;;;;5024092;28;20033;-84
2022/10/14 07:49:20;;;;;;;5.78;2.55;;;20.20;56.90;;;;;;5034034;28;20480;-83
2022/10/14 07:51:46;;;;;;;8.43;3.40;;;20.20;57.10;;;;;;5005019;28;20148;-84
2022/10/14 07:54:15;;;;;;;8.93;3.28;;;20.10;56.60;;;;;;5006641;28;20314;-84
2022/10/14 07:56:42;;;;;;;7.68;3.10;;;20.00;54.70;;;;;;5025766;28;20120;-84
2022/10/14 07:59:08;;;;;;;4.80;2.63;;;20.00;54.50;;;;;;5025555;28;20512;-84
2022/10/14 08:01:34;;;;;;;7.30;2.75;;;19.90;54.20;;;;;;5033079;28;20033;-84
2022/10/14 08:04:01;;;;;;;5.05;2.65;;;19.90;53.10;;;;;;5008806;28;20033;-83
2022/10/14 08:06:27;;;;;;;6.03;2.95;;;19.90;53.10;;;;;;5006136;28;20494;-84
2022/10/14 08:08:52;;;;;;;3.53;2.90;;;19.80;52.90;;;;;;5024522;28;20144;-83
2022/10/14 08:11:22;;;;;;;6.03;2.58;;;19.80;53.00;;;;;;5041736;28;20536;-84
2022/10/14 08:13:49;;;;;;;5.70;2.85;;;19.70;52.30;;;;;;5024714;28;20140;-82
2022/10/14 08:16:19;;;;;;;4.35;2.70;;;19.70;52.40;;;;;;5022428;28;20057;-83
2022/10/14 08:18:46;;;;;;;2.97;2.47;;;19.60;53.00;;;;;;5009903;28;20084;-82
2022/10/14 08:21:12;;;;;;;7.40;2.70;;;19.60;52.30;;;;;;5009634;28;20053;-83
2022/10/14 08:23:38;;;;;;;6.68;2.78;;;19.50;52.50;;;;;;5007584;28;20590;-83
2022/10/14 08:26:27;;;;;;;3.80;2.60;;;19.50;52.30;;;;;;5041052;28;20041;-82
2022/10/14 08:28:53;;;;;;;6.43;3.35;;;19.40;52.00;;;;;;5040854;28;20080;-83
2022/10/14 08:31:20;;;;;;;3.35;2.88;;;19.40;52.20;;;;;;5024945;28;20038;-82
2022/10/14 08:33:46;;;;;;;3.65;2.70;;;19.30;52.10;;;;;;5025236;28;20044;-83
2022/10/14 08:36:12;;;;;;;3.50;2.85;;;19.30;52.40;;;;;;5024792;28;20052;-83
2022/10/14 08:38:38;;;;;;;5.63;2.50;;;19.30;51.90;;;;;;5019912;28;20428;-83
2022/10/14 08:41:37;;;;;;;3.85;2.75;;;19.30;52.00;;;;;;5003914;28;20033;-82
2022/10/14 08:44:18;;;;;;;3.95;2.30;;;19.20;51.60;;;;;;5008474;28;20059;-82
2022/10/14 08:46:57;;;;;;;5.50;2.58;;;19.20;52.00;;;;;;5006585;28;20036;-82
2022/10/14 08:49:41;;;;;;;3.42;2.30;;;19.20;51.80;;;;;;5021073;28;20072;-82
2022/10/14 08:52:09;;;;;;;3.47;1.90;;;19.10;51.70;;;;;;5041775;28;21019;-82
2022/10/14 08:54:39;;;;;;;4.45;1.73;;;19.10;51.60;;;;;;5024738;28;20397;-82
2022/10/14 08:57:19;;;;;;;1.75;1.60;;;19.10;51.90;;;;;;5024195;28;20041;-82
2022/10/14 08:59:47;;;;;;;3.20;1.70;;;19.00;51.90;;;;;;5024693;28;20381;-82
2022/10/14 09:02:40;;;;;;;3.17;1.50;;;19.00;51.80;;;;;;4991176;28;20030;-82
2022/10/14 09:05:16;;;;;;;2.92;2.40;;;19.00;51.70;;;;;;5020898;28;20090;-82
2022/10/14 09:07:44;;;;;;;5.25;2.33;;;18.90;51.50;;;;;;5001634;28;20408;-82
2022/10/14 09:10:17;;;;;;;3.35;2.17;;;18.90;51.60;;;;;;5021426;28;20033;-82
2022/10/14 09:12:43;;;;;;;2.42;1.80;;;18.90;51.40;;;;;;5007648;28;20037;-83
2022/10/14 09:15:16;;;;;;;3.13;2.00;;;18.80;51.70;;;;;;5024080;28;20037;-83
2022/10/14 09:18:00;;;;;;;3.00;1.58;;;18.80;51.80;;;;;;5022842;28;20412;-83
2022/10/14 09:20:26;;;;;;;3.90;2.08;;;18.70;51.80;;;;;;5005463;28;20034;-83
2022/10/14 09:23:15;;;;;;;3.67;1.90;;;18.60;51.60;;;;;;5007969;28;20053;-82
2022/10/14 09:25:58;;;;;;;3.53;1.80;;;18.60;51.90;;;;;;5006629;28;20060;-82
2022/10/14 09:28:43;;;;;;;3.83;1.92;;;18.60;51.80;;;;;;5023352;28;20038;-85
2022/10/14 09:31:11;;;;;;;2.53;1.55;;;18.50;52.60;;;;;;5026054;28;20052;-84
2022/10/14 09:33:39;;;;;;;6.78;1.90;;;18.50;51.30;;;;;;4997349;28;20033;-83
2022/10/14 09:36:16;;;;;;;2.63;1.40;;;18.40;50.80;;;;;;5027736;28;20056;-84
2022/10/14 09:38:43;;;;;;;1.65;1.50;;;18.30;51.00;;;;;;4996264;28;20033;-85
2022/10/14 09:41:13;;;;;;;2.78;1.60;;;18.20;51.00;;;;;;5032570;28;20034;-85
2022/10/14 09:44:02;;;;;;;2.63;1.33;;;18.10;51.80;;;;;;5025533;28;20029;-85
2022/10/14 09:46:28;;;;;;;2.83;1.35;;;18.00;51.30;;;;;;5031967;28;20452;-84
2022/10/14 09:48:55;;;;;;;2.75;1.88;;;17.90;51.50;;;;;;5017016;28;20033;-84
2022/10/14 09:51:30;;;;;;;5.63;1.73;;;17.80;51.50;;;;;;5014692;28;20116;-83
2022/10/14 09:54:01;;;;;;;3.87;2.30;;;17.80;51.70;;;;;;5031320;28;20091;-84
2022/10/14 09:56:36;;;;;;;3.15;1.77;;;17.70;51.90;;;;;;5033492;28;20272;-85
2022/10/14 09:59:19;;;;;;;2.42;2.20;;;17.70;51.60;;;;;;5012715;28;20030;-84
2022/10/14 10:01:56;;;;;;;5.20;2.83;;;17.60;51.60;;;;;;5031841;28;20034;-84
2022/10/14 10:04:36;;;;;;;6.47;2.33;;;17.60;52.40;;;;;;5029475;28;20091;-84
2022/10/14 10:07:05;;;;;;;3.58;1.77;;;17.60;53.10;;;;;;5030919;28;20049;-84
2022/10/14 10:09:31;;;;;;;2.28;1.50;;;17.60;52.90;;;;;;5032395;28;20037;-84
2022/10/14 10:11:57;;;;;;;4.80;1.70;;;17.50;52.80;;;;;;5011346;28;20041;-85
2022/10/14 10:14:31;;;;;;;3.22;1.30;;;17.50;52.50;;;;;;5029271;28;20041;-84
2022/10/14 10:17:06;;;;;;;2.30;1.77;;;17.50;52.20;;;;;;5018236;28;20120;-83
2022/10/14 10:19:34;;;;;;;1.52;1.30;;;17.40;52.00;;;;;;5024509;28;20087;-87
2022/10/14 10:22:19;;;;;;;3.42;1.45;;;17.40;53.20;;;;;;5027133;28;20492;-88
2022/10/14 10:24:48;;;;;;;2.28;1.60;;;17.50;54.00;;;;;;5026061;28;20048;-83
2022/10/14 10:27:25;;;;;;;1.77;1.60;;;17.50;53.90;;;;;;5043528;28;20037;-83
2022/10/14 10:29:54;;;;;;;3.05;1.45;;;17.50;53.80;;;;;;5042637;28;20650;-85
2022/10/14 10:32:53;;;;;;;2.70;1.45;;;17.40;53.60;;;;;;5008454;28;20540;-85
2022/10/14 10:35:32;;;;;;;5.25;1.50;;;17.40;53.30;;;;;;5019841;28;20065;-84
2022/10/14 10:38:06;;;;;;;4.30;1.60;;;17.40;53.10;;;;;;5007041;28;20491;-84
2022/10/14 10:40:40;;;;;;;3.25;1.85;;;17.40;53.50;;;;;;5043106;28;20056;-86
2022/10/14 10:43:17;;;;;;;7.03;1.70;;;17.40;53.40;;;;;;4992010;28;20056;-89
2022/10/14 10:45:52;;;;;;;2.63;1.63;;;17.40;53.70;;;;;;5026617;28;20060;-88
2022/10/14 10:48:56;;;;;;;2.70;1.67;;;17.40;53.50;;;;;;5027242;28;20116;-82
2022/10/14 10:51:33;;;;;;;2.60;1.90;;;17.40;53.10;;;;;;5032612;28;20072;-88
2022/10/14 10:54:26;;;;;;;3.03;1.70;;;17.40;53.50;;;;;;5025995;28;20037;-84
2022/10/14 10:56:58;;;;;;;1.90;1.10;;;17.40;54.50;;;;;;5025560;28;20040;-88
2022/10/14 10:59:55;;;;;;;1.35;0.98;;;17.40;54.10;;;;;;5042173;28;20037;-83
2022/10/14 11:02:32;;;;;;;2.28;0.80;;;17.40;54.10;;;;;;5028215;28;20068;-90
2022/10/14 11:05:11;;;;;;;1.75;0.80;;;17.40;53.80;;;;;;4992614;28;20084;-81
2022/10/14 11:14:20;;;;;;;1.85;1.30;;;17.40;55.30;;;;;;5025259;28;20042;-82
2022/10/14 11:17:09;;;;;;;3.38;1.20;;;17.40;55.10;;;;;;4994946;28;20062;-87
2022/10/14 11:19:42;;;;;;;2.55;1.00;;;17.40;55.40;;;;;;5014536;28;20121;-83
2022/10/14 11:22:27;;;;;;;3.38;1.23;;;17.40;55.30;;;;;;5010600;28;20416;-87
2022/10/14 11:25:02;;;;;;;1.27;0.98;;;17.40;54.90;;;;;;4989932;28;20052;-88
2022/10/14 11:27:46;;;;;;;2.70;1.00;;;17.40;55.30;;;;;;5025020;28;20037;-88
2022/10/14 11:30:31;;;;;;;2.75;1.42;;;17.40;55.60;;;;;;5026492;28;20454;-85
2022/10/14 11:33:28;;;;;;;2.05;1.40;;;17.40;55.50;;;;;;5005485;28;20567;-86
2022/10/14 11:36:06;;;;;;;1.50;1.00;;;17.40;55.40;;;;;;5004718;28;20128;-83
2022/10/14 11:39:17;;;;;;;1.20;0.90;;;17.30;55.10;;;;;;5026123;28;20084;-82
2022/10/14 11:41:55;;;;;;;2.42;1.27;;;17.30;55.50;;;;;;5020729;28;20107;-82
2022/10/14 11:44:23;;;;;;;1.67;1.38;;;17.30;55.30;;;;;;5025315;28;20431;-83
2022/10/14 11:46:55;;;;;;;1.65;1.20;;;17.30;54.50;;;;;;5025421;28;20038;-84
2022/10/14 11:49:24;;;;;;;1.65;1.02;;;17.20;54.30;;;;;;5006385;28;20496;-84
2022/10/14 11:51:54;;;;;;;2.15;1.25;;;17.10;54.20;;;;;;5005440;28;20072;-83
2022/10/14 11:54:30;;;;;;;2.88;1.40;;;17.10;54.70;;;;;;5021010;28;20096;-83
2022/10/14 11:57:12;;;;;;;3.80;1.48;;;17.10;54.90;;;;;;5020850;28;20603;-84
2022/10/14 11:59:48;;;;;;;2.03;1.25;;;17.10;54.80;;;;;;5006633;28;20458;-83
2022/10/14 12:02:39;;;;;;;4.03;1.77;;;17.10;55.60;;;;;;5025611;28;20057;-82
2022/10/14 12:05:32;;;;;;;2.88;1.30;;;17.10;56.40;;;;;;5026428;28;20121;-82
2022/10/14 12:08:22;;;;;;;3.45;1.30;;;17.20;55.90;;;;;;5040443;28;20488;-82
2022/10/14 12:10:56;;;;;;;1.63;1.00;;;17.10;55.60;;;;;;5022945;28;20032;-84
2022/10/14 12:13:36;;;;;;;1.95;1.00;;;17.10;55.40;;;;;;5001161;28;20292;-81
2022/10/14 12:16:05;;;;;;;2.08;1.27;;;17.10;55.40;;;;;;5008298;28;20338;-90
2022/10/14 12:18:31;;;;;;;2.13;1.17;;;17.10;55.00;;;;;;5009959;28;20045;-90
2022/10/14 12:21:06;;;;;;;2.17;1.05;;;17.10;55.10;;;;;;5029935;28;20040;-88
2022/10/14 12:23:51;;;;;;;4.63;1.10;;;17.10;55.60;;;;;;5031000;28;20036;-89
2022/10/14 12:27:07;;;;;;;1.85;0.70;;;17.10;56.00;;;;;;5026092;28;20025;-90
2022/10/14 12:29:48;;;;;;;1.20;0.90;;;17.10;55.80;;;;;;4991871;28;20228;-83
2022/10/14 12:32:19;;;;;;;2.38;0.90;;;17.10;55.30;;;;;;4992382;28;20426;-88
2022/10/14 12:34:54;;;;;;;2.15;0.95;;;17.10;54.60;;;;;;4976684;28;20033;-85
2022/10/14 12:37:30;;;;;;;1.45;0.80;;;17.10;55.30;;;;;;5009940;28;20038;-85
2022/10/14 12:40:05;;;;;;;2.35;0.80;;;17.10;55.40;;;;;;4991865;28;20037;-79
2022/10/14 12:42:33;;;;;;;2.15;1.10;;;17.10;55.90;;;;;;5000755;28;20036;-83
2022/10/14 12:45:18;;;;;;;1.35;0.90;;;17.10;57.60;;;;;;4987190;28;20092;-83
2022/10/14 12:47:45;;;;;;;1.08;0.70;;;17.20;57.50;;;;;;4988016;28;20536;-87
2022/10/14 12:50:15;;;;;;;1.80;1.20;;;17.30;56.80;;;;;;5004803;28;20045;-86
2022/10/14 12:52:47;;;;;;;1.15;0.80;;;17.20;56.30;;;;;;5004983;28;20041;-85
2022/10/14 12:55:18;;;;;;;1.40;1.25;;;17.20;56.20;;;;;;4988649;28;20038;-85
2022/10/14 12:57:58;;;;;;;2.65;1.20;;;17.20;56.70;;;;;;5004987;28;20045;-85
2022/10/14 13:00:23;;;;;;;2.10;1.00;;;17.20;56.30;;;;;;4989656;28;20124;-86
2022/10/14 13:02:58;;;;;;;3.33;1.42;;;17.20;56.50;;;;;;4993336;28;20109;-86
2022/10/14 13:05:36;;;;;;;3.13;1.35;;;17.20;55.80;;;;;;5008360;28;20428;-89
2022/10/14 13:08:24;;;;;;;2.70;1.45;;;17.10;55.60;;;;;;5025145;28;20064;-91
2022/10/14 13:11:01;;;;;;;2.67;1.33;;;17.10;56.30;;;;;;5006452;28;20040;-90
2022/10/14 13:13:48;;;;;;;2.90;1.20;;;17.10;55.90;;;;;;5025754;28;20089;-90
2022/10/14 13:16:20;;;;;;;3.97;1.10;;;17.10;56.50;;;;;;5024922;28;20053;-90
2022/10/14 13:18:45;;;;;;;2.25;1.17;;;17.20;57.10;;;;;;5036567;28;20040;-88
2022/10/14 13:21:33;;;;;;;2.13;1.02;;;17.20;57.00;;;;;;5015117;28;20467;-86
2022/10/14 13:24:04;;;;;;;3.92;1.30;;;17.10;56.10;;;;;;5024020;28;20415;-87